Terminal Aerodrome Forecast
Issued by NWS

Home | Current Version | Previous Version | Graphics & Text | Print | Product List | Glossary On
Versions: 1 2 3 4 5 6 7 8 9 10 11 12 13 14
000
FTUS41 KCLE 182300
TAFFDY
TAF
KFDY 182330Z 1900/1924 33008KT P6SM SKC
     FM190300 01008KT P6SM SKC
     FM190800 03009KT P6SM FEW025 SCT035
     FM191400 07012KT P6SM FEW100 SCT250=

USA.gov is the U.S. government's official web portal to all federal, state and local government web resources and services.